FSLO2: Fort Supply Lake

Data processed at Thu May 23 2019 23:50


All information presented herein is the property of the government of the United States of America and may be revised or deleted at any time without prior notice.
Dissemination of this information without the expressed written consent of the Public Affairs Office, Tulsa District U.S. Army Corps of Engineers is strictly prohibited.
These data are gathered electronically and, as presented, have not undergone any form of quality control. These data are not guaranteed to be valid or correct.
Go to home page.
Go to station list.
Go to home page.

Upstream stations:

Downstream station:
Previous Day
Next Day
Current Day
    
SHEF ID:       FSLO2     Ft. Supply Lake
STATION TYPE:  RESERVOIR
Flood Pool:  Bottom =  2004.00, Top =  2028.00

               PRECIP ELEVATION   STORAGE    INFLOW   RELEASE  AIR-TEMP  WIND-DIRWIND-SPEED REL-HUMID SOLAR-RAD   VOLTAGE  BAT-LOAD
                   in        ft     ac-ft       cfs       cfs         F       deg       mph         %      W/m2      volt      volt
              Ccp-Rev   Ccp-Rev   Ccp-Rev  Rev-Regi  Rev-Regi   Ccp-Rev   Ccp-Rev   Ccp-Rev   Ccp-Rev   Ccp-Rev   Ccp-Rev   Ccp-Rev
(US/Central)
05/23 00:00      0.00   2006.26     16793       636         0     64.40    116.20      5.40     69.43      0.00     13.44     13.29
05/23 01:00      0.00   2006.29     16859       636         0     64.83    117.90      8.10     68.08      0.00     13.44     13.29
05/23 02:00      0.00   2006.32     16925       530         0     64.08    118.80      9.10     68.67      0.00     13.44     13.29
05/23 03:00      0.00   2006.34     16969       636         0     63.68    117.60      7.50     69.70      0.00     13.44     13.29
05/23 04:00      0.00   2006.35     16990       583         0     63.07     98.30      4.10     72.89      0.00     13.44     13.29
05/23 05:00      0.00   2006.38     17056       477         0     62.01     84.70      3.80     76.52      0.00     13.44     13.29
05/23 06:00      0.00   2006.40     17100       477         0     60.53     76.70      2.70     82.50      0.00     13.44     13.29
05/23 07:00      0.00   2006.41     17122       583         0     60.13     84.70      3.00     82.59      0.00     13.44     13.29
05/23 08:00      0.00   2006.43     17166       477         0     60.46    106.80      4.50     81.26      3.40     13.44     13.29
05/23 09:00      0.00   2006.46     17231       530         0     60.78    105.60      4.00     83.85     39.10     13.43     13.29
05/23 10:00      0.00   2006.47     17253       530         0     61.32    114.60      5.30     86.78     78.30     13.44     13.29
05/23 11:00      0.00   2006.50     17319       530         0     61.81    121.40      7.10     91.41     94.80     13.44     13.05
05/23 12:00      0.00   2006.51     17341       424         0     63.37    120.60      6.90     91.94    216.40     13.44     13.29
05/23 13:00      0.00   2006.53     17385       424         0     67.05    117.50      6.40     88.64    269.10     13.44     13.29
05/23 14:00      0.00   2006.54     17407       477         0     70.05    117.00      7.90     85.63    318.70     13.44     13.29
05/23 15:00      0.00   2006.55     17428       530         0     70.59    113.70      7.10     90.86     58.80     13.44     13.29
05/23 16:00      0.01   2006.59     17516       477         0     71.35    158.00     14.40     96.89     31.90     13.44     13.29
05/23 17:00      0.00   2006.61     17560       477         0     71.28    160.30     16.40     97.09     47.40     13.44     13.29
05/23 18:00      0.01   2006.62     17582       477         0     71.76    156.60     15.20     94.76     47.80     13.44     13.29
05/23 19:00      0.00   2006.63     17604       424         0     72.95    154.40     12.30     91.61     16.60     13.44     13.29
05/23 20:00      0.00   2006.64     17626       318         0     73.98    162.90     14.40     86.16      0.00     13.44     13.29
05/23 21:00      0.00   2006.67     17691       477         0     74.46    158.20     15.30     82.44      0.00     13.44     13.29
05/23 22:00      0.00   2006.67     17691       424         0     74.44    155.50     15.90     82.98      0.00     13.44     13.29
05/23 23:00      0.00   2006.71     17779       795         0     74.44    160.00     19.60     81.55      0.00     13.44     13.29